createdAt,value
2019-01-19T00:01:23.127Z,23.85
2019-01-19T00:02:34.399Z,23.65
2019-01-19T00:04:25.875Z,23.45
2019-01-19T00:05:52.609Z,20.10
2019-01-19T00:09:15.153Z,19.55
2019-01-19T00:10:41.560Z,18.30
2019-01-19T00:13:10.569Z,21.17
2019-01-19T00:14:10.320Z,19.73
2019-01-19T00:15:13.111Z,23.15
2019-01-19T00:16:16.562Z,21.33
2019-01-19T00:17:16.991Z,21.85
2019-01-19T00:18:43.576Z,23.12
2019-01-19T00:20:10.044Z,20.05
2019-01-19T00:21:39.300Z,23.57
2019-01-19T00:22:54.392Z,22.37
2019-01-19T00:24:20.896Z,20.40
2019-01-19T00:25:35.795Z,20.70
2019-01-19T00:29:31.917Z,20.40
2019-01-19T00:30:58.536Z,23.67
2019-01-19T00:32:28.037Z,19.37
2019-01-19T00:33:54.486Z,20.62
2019-01-19T00:35:20.850Z,20.32
2019-01-19T00:36:32.809Z,19.27
2019-01-19T00:37:43.133Z,21.27
2019-01-19T00:38:59.896Z,26.00
2019-01-19T00:40:26.269Z,20.17
2019-01-19T00:41:52.612Z,19.98
2019-01-19T00:43:19.145Z,19.37
2019-01-19T00:44:29.993Z,20.95
2019-01-19T00:45:56.312Z,19.17
2019-01-19T00:47:06.896Z,19.70
2019-01-19T00:48:19.555Z,22.20
2019-01-19T00:49:46.339Z,18.55
2019-01-19T00:52:06.023Z,21.27
2019-01-19T00:53:34.256Z,19.30
2019-01-19T00:55:01.196Z,18.45
2019-01-19T00:56:14.214Z,17.10
2019-01-19T00:57:40.661Z,19.07
2019-01-19T00:59:07.107Z,18.57
2019-01-19T01:00:53.521Z,18.17
2019-01-19T01:02:20.502Z,19.20
2019-01-19T01:03:48.185Z,18.40
2019-01-19T01:05:06.862Z,18.42
2019-01-19T01:06:33.750Z,19.27
2019-01-19T01:08:00.309Z,20.32
2019-01-19T01:09:27.097Z,19.92
2019-01-19T01:10:27.187Z,17.73
2019-01-19T01:11:26.735Z,19.00
2019-01-19T01:12:27.324Z,19.73
2019-01-19T01:13:31.914Z,16.50
2019-01-19T01:15:14.824Z,18.10
2019-01-19T01:16:15.231Z,18.52
2019-01-19T01:17:57.397Z,16.97
2019-01-19T01:18:58.030Z,21.62
2019-01-19T01:19:58.495Z,18.07
2019-01-19T01:20:58.115Z,16.75
2019-01-19T01:22:11.965Z,19.37
2019-01-19T01:23:38.525Z,19.48
2019-01-19T01:24:59.013Z,20.43
2019-01-19T01:26:25.439Z,17.17
2019-01-19T01:27:51.930Z,18.45
2019-01-19T01:29:18.430Z,17.70
2019-01-19T01:30:44.826Z,19.65
2019-01-19T01:32:11.283Z,21.17
2019-01-19T01:33:37.752Z,21.00
2019-01-19T01:34:50.983Z,19.57
2019-01-19T01:36:17.419Z,17.75
2019-01-19T01:37:44.500Z,16.77
2019-01-19T01:39:10.886Z,17.65
2019-01-19T01:40:37.453Z,18.67
2019-01-19T01:41:47.630Z,15.10
2019-01-19T01:43:14.013Z,20.05
2019-01-19T01:44:23.822Z,20.15
2019-01-19T01:45:50.285Z,18.52
2019-01-19T01:47:16.781Z,17.75
2019-01-19T01:48:43.335Z,18.62
2019-01-19T01:50:09.818Z,18.67
2019-01-19T01:51:36.193Z,16.77
2019-01-19T01:53:03.412Z,16.25
2019-01-19T01:54:29.845Z,20.00
2019-01-19T01:55:56.159Z,16.62
2019-01-19T01:57:06.723Z,18.32
2019-01-19T01:58:33.252Z,21.73
2019-01-19T01:59:59.539Z,17.48
2019-01-19T02:01:26.031Z,19.48
2019-01-19T02:02:53.520Z,16.60
2019-01-19T02:04:20.125Z,19.77
2019-01-19T02:05:40.360Z,18.67
2019-01-19T02:07:22.068Z,18.92
2019-01-19T02:08:48.587Z,20.40
2019-01-19T02:10:14.991Z,17.00
2019-01-19T02:11:41.410Z,17.87
2019-01-19T02:13:14.185Z,16.20
2019-01-19T02:14:20.684Z,15.15
2019-01-19T02:15:54.580Z,17.17
2019-01-19T02:17:24.009Z,17.92
2019-01-19T02:18:50.512Z,17.98
2019-01-19T02:20:16.977Z,18.05
2019-01-19T02:21:43.357Z,17.85
2019-01-19T02:23:29.528Z,17.15
2019-01-19T02:24:58.834Z,17.12
2019-01-19T02:26:13.446Z,17.80
2019-01-19T02:27:39.912Z,15.78
2019-01-19T02:29:25.811Z,17.32
2019-01-19T02:30:52.397Z,16.85
2019-01-19T02:32:38.275Z,15.50
2019-01-19T02:34:24.146Z,16.73
2019-01-19T02:35:51.408Z,16.73
2019-01-19T02:37:17.896Z,16.45
2019-01-19T02:38:44.512Z,16.07
2019-01-19T02:39:57.165Z,15.78
2019-01-19T02:41:23.550Z,16.90
2019-01-19T02:42:51.483Z,15.63
2019-01-19T02:44:18.090Z,16.45
2019-01-19T02:45:28.229Z,17.73
2019-01-19T02:46:54.714Z,18.15
2019-01-19T02:48:21.188Z,14.25
2019-01-19T02:49:37.295Z,18.85
2019-01-19T02:51:03.724Z,15.80
2019-01-19T02:52:30.374Z,17.62
2019-01-19T02:53:56.991Z,16.52
2019-01-19T02:55:23.453Z,19.45
2019-01-19T02:56:34.988Z,17.70
2019-01-19T02:58:01.653Z,16.57
2019-01-19T02:59:11.000Z,17.10
2019-01-19T03:00:26.142Z,18.35
2019-01-19T03:01:52.514Z,17.62
2019-01-19T03:03:18.966Z,17.37
2019-01-19T03:04:45.357Z,17.25
2019-01-19T03:06:12.156Z,15.30
2019-01-19T03:07:38.653Z,17.35
2019-01-19T03:09:05.092Z,19.37
2019-01-19T03:10:18.238Z,17.95
2019-01-19T03:11:18.484Z,18.07
2019-01-19T03:12:18.753Z,17.35
2019-01-19T03:13:18.851Z,17.12
2019-01-19T03:14:21.793Z,15.43
2019-01-19T03:15:21.421Z,15.63
2019-01-19T03:16:21.006Z,17.65
2019-01-19T03:17:21.603Z,16.30
2019-01-19T03:18:22.171Z,15.40
2019-01-19T03:19:21.837Z,16.20
2019-01-19T03:20:24.554Z,15.40
2019-01-19T03:21:24.833Z,16.82
2019-01-19T03:22:25.273Z,15.38
2019-01-19T03:23:25.022Z,15.95
2019-01-19T03:24:24.748Z,17.12
2019-01-19T03:25:24.283Z,16.75
2019-01-19T03:26:23.891Z,15.63
2019-01-19T03:27:23.344Z,18.02
2019-01-19T03:29:05.289Z,15.60
2019-01-19T03:30:05.306Z,14.85
2019-01-19T03:31:05.326Z,18.05
2019-01-19T03:32:05.781Z,19.25
2019-01-19T03:33:05.249Z,16.12
2019-01-19T03:34:04.921Z,13.58
2019-01-19T03:35:04.534Z,16.15
2019-01-19T03:36:04.756Z,13.38
2019-01-19T03:37:04.743Z,17.62
2019-01-19T03:38:04.224Z,14.45
2019-01-19T03:39:05.604Z,16.52
2019-01-19T03:40:05.183Z,14.75
2019-01-19T03:41:07.886Z,16.02
2019-01-19T03:42:17.965Z,13.48
2019-01-19T03:43:44.272Z,13.85
2019-01-19T03:45:10.829Z,16.48
2019-01-19T03:46:37.235Z,16.07
2019-01-19T03:48:03.984Z,15.23
2019-01-19T03:49:30.353Z,13.25
2019-01-19T03:50:56.746Z,13.85
2019-01-19T03:52:11.524Z,14.28
2019-01-19T03:53:31.622Z,14.93
2019-01-19T03:54:42.193Z,13.60
2019-01-19T03:55:57.314Z,15.38
2019-01-19T03:57:23.743Z,13.48
2019-01-19T03:58:37.415Z,15.10
2019-01-19T03:59:51.728Z,12.93
2019-01-19T04:01:18.124Z,13.25
2019-01-19T04:02:44.544Z,15.93
2019-01-19T04:03:54.257Z,12.07
2019-01-19T04:05:23.821Z,15.30
2019-01-19T04:06:50.316Z,11.65
2019-01-19T04:08:06.966Z,12.45
2019-01-19T04:09:33.406Z,15.53
2019-01-19T04:10:59.736Z,13.85
2019-01-19T04:12:26.221Z,14.80
2019-01-19T04:13:38.085Z,13.05
2019-01-19T04:15:04.547Z,10.70
2019-01-19T04:16:30.886Z,15.38
2019-01-19T04:17:58.604Z,15.38
2019-01-19T04:19:25.022Z,15.38
2019-01-19T04:20:51.382Z,11.97
2019-01-19T04:22:17.656Z,17.07
2019-01-19T04:23:44.036Z,12.15
2019-01-19T04:25:10.336Z,14.23
2019-01-19T04:26:20.600Z,11.90
2019-01-19T04:27:27.658Z,12.47
2019-01-19T04:28:34.725Z,13.93
2019-01-19T04:29:41.595Z,13.53
2019-01-19T04:30:49.625Z,11.43
2019-01-19T04:31:56.634Z,14.40
2019-01-19T04:33:03.582Z,11.73
2019-01-19T04:34:10.742Z,13.13
2019-01-19T04:35:17.700Z,12.07
2019-01-19T04:36:24.650Z,12.20
2019-01-19T04:37:31.528Z,13.45
2019-01-19T04:40:26.611Z,11.00
2019-01-19T04:41:33.552Z,11.08
2019-01-19T04:44:17.726Z,11.88
2019-01-19T04:45:25.019Z,12.95
2019-01-19T04:46:32.022Z,12.78
2019-01-19T04:47:39.067Z,11.38
2019-01-19T04:48:46.095Z,12.90
2019-01-19T04:49:53.008Z,11.68
2019-01-19T04:50:59.829Z,11.38
2019-01-19T04:52:06.717Z,11.35
2019-01-19T04:53:13.652Z,11.68
2019-01-19T04:54:20.536Z,11.83
2019-01-19T04:55:27.514Z,12.20
2019-01-19T04:56:34.486Z,11.55
2019-01-19T04:57:41.428Z,12.18
2019-01-19T04:58:48.325Z,10.88
2019-01-19T04:59:55.241Z,11.40
2019-01-19T05:01:02.149Z,11.50
2019-01-19T05:02:09.085Z,9.95
2019-01-19T05:03:15.920Z,12.10
2019-01-19T05:04:22.801Z,10.63
2019-01-19T05:05:29.729Z,10.43
2019-01-19T05:06:36.733Z,9.83
2019-01-19T05:07:43.943Z,11.95
2019-01-19T05:08:50.860Z,13.32
2019-01-19T05:09:57.710Z,8.73
2019-01-19T05:11:04.722Z,9.18
2019-01-19T05:12:11.560Z,11.73
2019-01-19T05:13:11.014Z,9.45
2019-01-19T05:14:10.543Z,10.03
2019-01-19T05:15:11.062Z,11.08
2019-01-19T05:16:10.696Z,11.43
2019-01-19T05:17:10.423Z,11.10
2019-01-19T05:18:10.023Z,9.68
2019-01-19T05:19:10.445Z,10.88
2019-01-19T05:20:10.006Z,13.13
2019-01-19T05:21:09.738Z,10.58
2019-01-19T05:22:09.942Z,9.10
2019-01-19T05:23:10.846Z,8.68
2019-01-19T05:24:10.985Z,8.45
2019-01-19T05:25:10.533Z,8.93
2019-01-19T05:26:10.249Z,12.15
2019-01-19T05:27:09.671Z,11.10
2019-01-19T05:28:10.187Z,9.80
2019-01-19T05:29:09.843Z,13.83
2019-01-19T05:30:09.348Z,8.98
2019-01-19T05:31:08.976Z,12.95
2019-01-19T05:32:08.565Z,12.07
2019-01-19T05:33:08.214Z,8.58
2019-01-19T05:34:07.718Z,10.00
2019-01-19T05:35:07.428Z,10.35
2019-01-19T05:36:08.170Z,10.58
2019-01-19T05:37:07.631Z,10.72
2019-01-19T05:38:07.118Z,10.58
2019-01-19T05:39:06.740Z,10.20
2019-01-19T05:40:06.398Z,8.80
2019-01-19T05:41:07.282Z,8.38
2019-01-19T05:42:07.906Z,7.65
2019-01-19T05:43:11.352Z,9.75
2019-01-19T05:44:11.738Z,10.38
2019-01-19T05:45:11.327Z,11.33
2019-01-19T05:46:10.878Z,11.18
2019-01-19T05:47:10.701Z,11.65
2019-01-19T05:48:11.090Z,9.80
2019-01-19T05:49:10.695Z,9.13
2019-01-19T05:50:10.452Z,11.08
2019-01-19T05:51:17.484Z,11.93
2019-01-19T05:52:24.401Z,10.35
2019-01-19T05:53:31.697Z,8.58
2019-01-19T05:54:38.745Z,12.20
2019-01-19T05:55:45.757Z,11.08
2019-01-19T05:56:52.878Z,10.58
2019-01-19T05:57:59.773Z,9.30
2019-01-19T05:59:06.623Z,8.78
2019-01-19T06:00:17.271Z,11.12
2019-01-19T06:02:52.634Z,13.78
2019-01-19T06:03:59.545Z,12.47
2019-01-19T06:05:06.755Z,8.80
2019-01-19T06:06:13.788Z,8.60
2019-01-19T06:07:21.619Z,9.25
2019-01-19T06:08:29.022Z,7.53
2019-01-19T06:09:36.024Z,11.22
2019-01-19T06:10:42.891Z,9.80
2019-01-19T06:11:49.869Z,7.33
2019-01-19T06:12:49.306Z,10.68
2019-01-19T06:13:48.853Z,10.88
2019-01-19T06:14:48.447Z,8.68
2019-01-19T06:15:48.194Z,10.72
2019-01-19T06:16:48.592Z,9.50
2019-01-19T06:17:36.440Z,10.85
2019-01-19T06:20:31.748Z,6.78
2019-01-19T06:22:45.448Z,10.18
2019-01-19T06:23:52.447Z,9.30
2019-01-19T06:24:59.414Z,8.55
2019-01-19T06:26:06.343Z,11.93
2019-01-19T06:27:13.180Z,10.65
2019-01-19T06:28:20.187Z,9.50
2019-01-19T06:29:27.001Z,10.20
2019-01-19T06:30:33.897Z,11.97
2019-01-19T06:31:40.873Z,12.30
2019-01-19T06:32:48.358Z,6.95
2019-01-19T06:34:17.107Z,7.85
2019-01-19T06:35:45.887Z,21.23
2019-01-19T06:36:54.986Z,16.23
2019-01-19T06:39:01.687Z,13.13
2019-01-19T06:40:09.765Z,35.95
2019-01-19T06:41:16.701Z,22.35
2019-01-19T06:42:23.619Z,23.98
2019-01-19T06:43:30.539Z,24.37
2019-01-19T06:44:37.403Z,15.60
2019-01-19T06:45:44.735Z,11.68
2019-01-19T06:46:51.670Z,8.65
2019-01-19T06:47:58.609Z,8.85
2019-01-19T06:49:05.443Z,11.15
2019-01-19T06:50:13.177Z,9.48
2019-01-19T06:51:20.043Z,10.25
2019-01-19T06:52:26.863Z,9.43
2019-01-19T06:53:33.855Z,8.53
2019-01-19T06:54:40.849Z,10.93
2019-01-19T06:55:47.792Z,9.35
2019-01-19T06:56:54.763Z,9.63
2019-01-19T06:59:29.000Z,10.95
2019-01-19T07:00:38.289Z,9.10
2019-01-19T07:01:45.192Z,7.15
2019-01-19T07:02:52.335Z,10.48
2019-01-19T07:03:59.233Z,10.13
2019-01-19T07:05:06.213Z,9.15
2019-01-19T07:06:13.079Z,9.90
2019-01-19T07:07:20.036Z,11.18
2019-01-19T07:08:27.169Z,7.70
2019-01-19T07:09:34.160Z,8.55
2019-01-19T07:10:41.032Z,9.08
2019-01-19T07:11:47.985Z,7.83
2019-01-19T07:12:54.995Z,8.63
2019-01-19T07:14:01.883Z,9.48
2019-01-19T07:15:09.211Z,9.25
2019-01-19T07:16:16.069Z,8.38
2019-01-19T07:17:22.973Z,7.35
2019-01-19T07:18:30.051Z,8.33
2019-01-19T07:19:36.959Z,10.43
2019-01-19T07:20:43.930Z,8.85
2019-01-19T07:21:50.998Z,8.80
2019-01-19T07:22:57.900Z,8.25
2019-01-19T07:24:05.215Z,9.13
2019-01-19T07:25:12.457Z,10.03
2019-01-19T07:26:19.405Z,10.90
2019-01-19T07:29:13.574Z,8.30
2019-01-19T07:30:20.475Z,8.93
2019-01-19T07:31:28.192Z,7.62
2019-01-19T07:32:15.762Z,7.30
2019-01-19T07:33:22.658Z,7.90
2019-01-19T07:34:29.520Z,8.23
2019-01-19T07:35:36.393Z,8.38
2019-01-19T07:36:43.413Z,8.80
2019-01-19T07:37:50.395Z,9.73
2019-01-19T07:38:57.266Z,6.45
2019-01-19T07:40:04.530Z,11.03
2019-01-19T07:41:11.443Z,6.95
2019-01-19T07:42:18.342Z,8.55
2019-01-19T07:44:59.940Z,8.88
2019-01-19T07:46:08.056Z,9.58
2019-01-19T07:47:15.137Z,9.73
2019-01-19T07:48:22.137Z,9.48
2019-01-19T07:49:30.591Z,10.28
2019-01-19T07:50:59.273Z,9.95
2019-01-19T07:52:06.181Z,9.35
2019-01-19T07:53:13.147Z,8.88
2019-01-19T07:54:20.124Z,9.25
2019-01-19T07:55:27.104Z,9.63
2019-01-19T07:56:34.033Z,8.13
2019-01-19T07:57:40.964Z,8.20
2019-01-19T07:58:48.054Z,8.80
2019-01-19T07:59:55.010Z,9.15
2019-01-19T08:01:02.087Z,7.22
2019-01-19T08:02:09.250Z,10.08
2019-01-19T08:03:16.189Z,9.83
2019-01-19T08:04:23.131Z,7.87
2019-01-19T08:05:30.075Z,7.25
2019-01-19T08:06:37.189Z,8.20
2019-01-19T08:07:44.275Z,9.40
2019-01-19T08:08:51.143Z,8.60
2019-01-19T08:09:58.184Z,7.90
2019-01-19T08:11:05.070Z,8.55
2019-01-19T08:12:11.963Z,7.83
2019-01-19T08:13:18.890Z,9.73
2019-01-19T08:14:18.741Z,8.65
2019-01-19T08:15:18.262Z,12.82
2019-01-19T08:16:17.784Z,8.38
2019-01-19T08:17:17.483Z,8.78
2019-01-19T08:18:17.095Z,9.63
2019-01-19T08:19:16.763Z,7.83
2019-01-19T08:20:16.311Z,9.05
2019-01-19T08:21:15.873Z,9.35
2019-01-19T08:22:15.592Z,12.07
2019-01-19T08:23:15.119Z,9.65
2019-01-19T08:24:17.750Z,10.30
2019-01-19T08:25:17.336Z,8.98
2019-01-19T08:26:16.882Z,12.15
2019-01-19T08:27:16.708Z,8.15
2019-01-19T08:28:17.274Z,6.92
2019-01-19T08:29:20.621Z,8.30
2019-01-19T08:30:23.859Z,7.90
2019-01-19T08:31:23.446Z,8.08
2019-01-19T08:32:23.756Z,6.15
2019-01-19T08:33:23.353Z,8.05
2019-01-19T08:34:23.279Z,8.43
2019-01-19T08:35:23.728Z,6.83
2019-01-19T08:36:23.531Z,7.22
2019-01-19T08:38:09.292Z,7.50
2019-01-19T08:39:08.992Z,7.47
2019-01-19T08:40:11.624Z,8.55
2019-01-19T08:41:11.261Z,8.60
2019-01-19T08:42:11.703Z,7.92
2019-01-19T08:43:36.673Z,7.33
2019-01-19T08:44:37.173Z,7.75
2019-01-19T08:45:37.462Z,9.23
2019-01-19T08:46:37.631Z,8.65
2019-01-19T08:49:05.540Z,29.52
2019-01-19T08:50:05.360Z,13.40
2019-01-19T08:51:05.532Z,7.40
2019-01-19T08:52:05.033Z,7.65
2019-01-19T08:53:08.501Z,6.47
2019-01-19T08:54:08.549Z,5.85
2019-01-19T08:55:08.945Z,8.05
2019-01-19T08:56:09.992Z,5.62
2019-01-19T08:57:10.108Z,8.50
2019-01-19T08:58:09.572Z,7.05
2019-01-19T08:59:09.348Z,8.18
2019-01-19T09:00:51.219Z,7.12
2019-01-19T09:01:50.912Z,5.92
2019-01-19T09:02:51.819Z,10.08
2019-01-19T09:03:54.875Z,8.15
2019-01-19T09:04:55.417Z,5.70
2019-01-19T09:06:37.715Z,7.03
2019-01-19T09:07:38.049Z,8.70
2019-01-19T09:08:25.656Z,7.55
2019-01-19T09:09:32.669Z,7.10
2019-01-19T09:10:40.169Z,6.53
2019-01-19T09:11:47.275Z,5.40
2019-01-19T09:12:56.393Z,8.70
2019-01-19T09:13:56.221Z,5.80
2019-01-19T09:14:56.134Z,8.13
2019-01-19T09:15:56.206Z,6.08
2019-01-19T09:16:56.004Z,5.92
2019-01-19T09:17:56.532Z,7.33
2019-01-19T09:18:57.195Z,6.75
2019-01-19T09:19:45.223Z,7.67
2019-01-19T09:20:52.334Z,8.30
2019-01-19T09:21:59.291Z,6.67
2019-01-19T09:23:25.770Z,6.58
2019-01-19T09:24:36.074Z,7.65
2019-01-19T09:25:24.027Z,11.55
2019-01-19T09:26:50.890Z,7.00
2019-01-19T09:27:58.412Z,5.15
2019-01-19T09:29:05.364Z,5.45
2019-01-19T09:30:14.025Z,7.40
2019-01-19T09:31:21.277Z,6.20
2019-01-19T09:32:28.493Z,6.90
2019-01-19T09:33:35.420Z,7.75
2019-01-19T09:34:23.024Z,6.75
2019-01-19T09:35:30.215Z,4.95
2019-01-19T09:36:37.309Z,5.83
2019-01-19T09:37:44.426Z,6.50
2019-01-19T09:38:51.386Z,6.30
2019-01-19T09:39:39.164Z,6.72
2019-01-19T09:40:46.287Z,6.45
2019-01-19T09:41:53.393Z,6.05
2019-01-19T09:43:00.870Z,6.67
2019-01-19T09:44:07.983Z,7.05
2019-01-19T09:45:15.383Z,9.58
2019-01-19T09:46:22.399Z,5.35
2019-01-19T09:47:29.422Z,6.00
2019-01-19T09:48:36.638Z,8.00
2019-01-19T09:49:24.360Z,20.52
2019-01-19T09:50:34.001Z,28.30
2019-01-19T09:51:21.835Z,6.35
2019-01-19T09:52:09.431Z,5.67
2019-01-19T09:52:57.079Z,7.65
2019-01-19T09:53:44.720Z,7.70
2019-01-19T09:54:32.246Z,5.42
2019-01-19T09:55:39.297Z,6.45
2019-01-19T09:56:26.969Z,8.53
2019-01-19T09:57:34.425Z,6.75
2019-01-19T09:58:22.070Z,4.97
2019-01-19T09:59:12.482Z,6.55
2019-01-19T10:00:00.177Z,5.78
2019-01-19T10:01:07.334Z,6.35
2019-01-19T10:01:54.872Z,8.53
2019-01-19T10:02:42.811Z,6.78
2019-01-19T10:03:49.813Z,6.40
2019-01-19T10:05:00.953Z,8.05
2019-01-19T10:06:29.659Z,8.10
2019-01-19T10:07:36.834Z,7.12
2019-01-19T10:08:43.793Z,7.00
2019-01-19T10:09:31.309Z,6.10
2019-01-19T10:10:38.672Z,5.92
2019-01-19T10:11:45.692Z,6.28
2019-01-19T10:12:56.131Z,6.97
2019-01-19T10:13:43.988Z,6.37
2019-01-19T10:15:37.072Z,6.15
2019-01-19T10:16:24.644Z,5.78
2019-01-19T10:17:31.765Z,5.78
2019-01-19T10:18:38.755Z,5.85
2019-01-19T10:19:26.566Z,7.72
2019-01-19T10:20:33.616Z,7.30
2019-01-19T10:21:21.175Z,7.65
2019-01-19T10:22:08.787Z,6.42
2019-01-19T10:23:15.770Z,7.15
2019-01-19T10:24:22.784Z,6.45
2019-01-19T10:25:32.305Z,6.45
2019-01-19T10:26:20.183Z,6.40
2019-01-19T10:27:27.324Z,9.45
2019-01-19T10:28:14.791Z,7.55
2019-01-19T10:29:02.626Z,5.20
2019-01-19T10:30:14.202Z,5.30
2019-01-19T10:31:01.846Z,6.37
2019-01-19T10:32:08.958Z,6.30
2019-01-19T10:33:15.899Z,6.50
2019-01-19T10:34:22.891Z,5.00
2019-01-19T10:35:11.635Z,7.67
2019-01-19T10:36:19.000Z,6.87
2019-01-19T10:37:06.512Z,8.65
2019-01-19T10:38:13.548Z,6.72
2019-01-19T10:39:20.609Z,5.70
2019-01-19T10:40:27.652Z,5.50
2019-01-19T10:41:40.798Z,7.42
2019-01-19T10:43:03.312Z,7.12
2019-01-19T10:44:10.223Z,5.62
2019-01-19T10:45:18.155Z,7.08
2019-01-19T10:46:25.124Z,5.17
2019-01-19T10:47:32.028Z,8.48
2019-01-19T10:48:38.911Z,6.22
2019-01-19T10:49:45.751Z,7.65
2019-01-19T10:50:52.651Z,8.15
2019-01-19T10:51:59.692Z,6.55
2019-01-19T10:53:06.607Z,7.08
2019-01-19T10:54:13.744Z,7.30
2019-01-19T10:55:21.299Z,8.75
2019-01-19T10:56:48.467Z,6.78
2019-01-19T10:58:16.203Z,8.78
2019-01-19T10:59:42.978Z,7.22
2019-01-19T11:01:09.779Z,6.30
2019-01-19T11:02:36.594Z,6.03
2019-01-19T11:04:03.551Z,9.85
2019-01-19T11:05:30.365Z,6.78
2019-01-19T11:06:57.281Z,6.22
2019-01-19T11:08:24.267Z,6.17
2019-01-19T11:12:56.648Z,6.05
2019-01-19T11:14:16.096Z,5.28
2019-01-19T11:15:39.354Z,4.78
2019-01-19T11:16:59.468Z,5.05
2019-01-19T11:18:19.219Z,9.18
2019-01-19T11:19:38.793Z,6.45
2019-01-19T11:20:58.385Z,4.97
2019-01-19T11:22:17.892Z,4.92
2019-01-19T11:23:39.849Z,4.72
2019-01-19T11:24:59.286Z,7.72
2019-01-19T11:26:19.042Z,7.67
2019-01-19T11:27:38.706Z,6.55
2019-01-19T11:28:58.337Z,6.03
2019-01-19T11:30:17.976Z,4.10
2019-01-19T11:31:37.741Z,8.10
2019-01-19T11:32:57.228Z,8.00
2019-01-19T11:34:16.999Z,8.25
2019-01-19T11:35:15.264Z,4.25
2019-01-19T11:36:22.121Z,8.08
2019-01-19T11:37:49.007Z,5.28
2019-01-19T11:39:15.822Z,4.47
2019-01-19T11:40:42.614Z,7.42
2019-01-19T11:42:09.628Z,5.55
2019-01-19T11:43:36.423Z,8.03
2019-01-19T11:45:03.459Z,5.12
2019-01-19T11:46:30.386Z,3.92
2019-01-19T11:47:57.211Z,6.03
2019-01-19T11:49:24.047Z,4.80
2019-01-19T11:50:50.917Z,5.75
2019-01-19T11:52:17.698Z,7.95
2019-01-19T11:53:44.576Z,5.87
2019-01-19T11:57:00.897Z,7.12
2019-01-19T11:58:27.704Z,4.05
2019-01-19T11:59:54.571Z,15.45
2019-01-19T12:02:37.096Z,4.30
2019-01-19T12:04:04.744Z,4.97
2019-01-19T12:05:31.688Z,6.15
2019-01-19T12:06:58.478Z,6.17
2019-01-19T12:08:25.282Z,6.00
2019-01-19T12:09:52.084Z,6.00
2019-01-19T12:11:18.872Z,6.03
2019-01-19T12:12:45.681Z,5.40
2019-01-19T12:14:12.552Z,6.67
2019-01-19T12:15:32.608Z,5.15
2019-01-19T12:16:52.484Z,3.42
2019-01-19T12:18:12.037Z,4.87
2019-01-19T12:19:31.784Z,3.40
2019-01-19T12:20:51.603Z,5.50
2019-01-19T12:22:11.086Z,5.65
2019-01-19T12:23:30.919Z,5.47
2019-01-19T12:24:50.675Z,6.22
2019-01-19T12:26:10.349Z,5.92
2019-01-19T12:27:29.961Z,3.87
2019-01-19T12:28:49.672Z,7.12
2019-01-19T12:30:09.401Z,5.15
2019-01-19T12:31:12.173Z,5.20
2019-01-19T12:32:31.748Z,6.12
2019-01-19T12:33:51.770Z,5.65
2019-01-19T12:35:19.290Z,4.05
2019-01-19T12:36:42.400Z,3.55
2019-01-19T12:38:02.694Z,5.50
2019-01-19T12:39:25.550Z,3.90
2019-01-19T12:40:45.619Z,34.25
2019-01-19T12:42:09.230Z,162.22
2019-01-19T12:43:28.942Z,9.93
2019-01-19T12:44:48.680Z,236.55
2019-01-19T12:46:08.358Z,81.42
2019-01-19T12:47:32.019Z,783.65
2019-01-19T12:48:55.147Z,1093.78
2019-01-19T12:50:17.682Z,272.10
2019-01-19T12:51:41.224Z,23.12
2019-01-19T12:53:00.594Z,22.30
2019-01-19T12:54:23.337Z,73.45
2019-01-19T12:55:43.402Z,7.37
2019-01-19T12:57:06.700Z,6.28
2019-01-19T12:58:26.856Z,5.17
2019-01-19T12:59:46.833Z,3.80
2019-01-19T13:01:06.912Z,4.67
2019-01-19T13:02:26.552Z,4.33
2019-01-19T13:03:46.256Z,3.67
2019-01-19T13:05:06.113Z,6.20
2019-01-19T13:06:28.922Z,10.70
2019-01-19T13:07:48.466Z,17.32
2019-01-19T13:09:12.463Z,7.20
2019-01-19T13:10:29.942Z,4.97
2019-01-19T13:11:49.679Z,6.22
2019-01-19T13:13:09.512Z,5.55
2019-01-19T13:14:29.153Z,4.65
2019-01-19T13:15:49.327Z,4.55
2019-01-19T13:16:52.597Z,8.33
2019-01-19T13:18:12.457Z,6.37
2019-01-19T13:19:32.211Z,5.85
2019-01-19T13:20:51.802Z,4.60
2019-01-19T13:22:13.609Z,5.15
2019-01-19T13:23:33.088Z,4.55
2019-01-19T13:24:35.850Z,4.00
2019-01-19T13:25:55.834Z,4.53
2019-01-19T13:27:15.601Z,4.83
2019-01-19T13:28:35.422Z,4.90
2019-01-19T13:29:55.078Z,5.28
2019-01-19T13:31:14.707Z,3.35
2019-01-19T13:32:34.679Z,3.37
2019-01-19T13:33:54.308Z,3.60
2019-01-19T13:35:14.018Z,3.22
2019-01-19T13:36:33.759Z,6.30
2019-01-19T13:37:53.608Z,5.20
2019-01-19T13:39:13.331Z,3.65
2019-01-19T13:40:32.992Z,4.22
2019-01-19T13:41:52.593Z,4.40
2019-01-19T13:43:12.314Z,5.62
2019-01-19T13:44:32.103Z,4.03
2019-01-19T13:45:51.656Z,4.55
2019-01-19T13:47:11.300Z,5.22
2019-01-19T13:48:30.908Z,5.95
2019-01-19T13:49:50.495Z,4.53
2019-01-19T13:51:10.264Z,4.75
2019-01-19T13:52:29.976Z,3.95
2019-01-19T13:53:32.653Z,4.45
2019-01-19T13:54:52.261Z,5.05
2019-01-19T13:56:12.123Z,4.97
2019-01-19T13:57:31.585Z,7.12
2019-01-19T13:58:54.395Z,5.45
2019-01-19T14:01:38.116Z,4.75
2019-01-19T14:02:58.638Z,6.87
2019-01-19T14:04:21.485Z,6.87
2019-01-19T14:05:41.079Z,3.85
2019-01-19T14:07:00.733Z,4.70
2019-01-19T14:08:20.605Z,7.83
2019-01-19T14:09:40.147Z,5.08
2019-01-19T14:10:59.951Z,5.15
2019-01-19T14:12:19.357Z,6.72
2019-01-19T14:13:39.180Z,4.40
2019-01-19T14:14:58.868Z,5.15
2019-01-19T14:16:18.420Z,3.50
2019-01-19T14:17:41.230Z,4.22
2019-01-19T14:19:00.795Z,5.08
2019-01-19T14:20:23.439Z,5.42
2019-01-19T14:21:43.152Z,4.95
2019-01-19T14:23:03.025Z,5.28
2019-01-19T14:24:05.729Z,5.80
2019-01-19T14:25:25.389Z,4.33
2019-01-19T14:26:47.984Z,5.10
2019-01-19T14:28:10.786Z,7.00
2019-01-19T14:29:30.635Z,4.95
2019-01-19T14:30:50.358Z,4.42
2019-01-19T14:32:10.220Z,6.03
2019-01-19T14:33:29.919Z,3.92
2019-01-19T14:34:49.636Z,5.17
2019-01-19T14:36:09.402Z,4.22
2019-01-19T14:37:28.976Z,3.85
2019-01-19T14:38:48.646Z,5.37
2019-01-19T14:40:08.322Z,4.15
2019-01-19T14:41:28.088Z,3.83
2019-01-19T14:42:47.757Z,6.50
2019-01-19T14:44:07.564Z,4.30
2019-01-19T14:45:27.057Z,5.75
2019-01-19T14:46:49.808Z,4.65
2019-01-19T14:48:09.498Z,3.60
2019-01-19T14:49:29.072Z,4.95
2019-01-19T14:50:48.688Z,4.45
2019-01-19T14:52:08.466Z,4.03
2019-01-19T14:53:28.198Z,5.35
2019-01-19T14:54:47.814Z,3.42
2019-01-19T14:56:07.299Z,3.75
2019-01-19T14:57:30.005Z,3.90
2019-01-19T14:58:49.809Z,3.85
2019-01-19T15:00:09.815Z,3.62
2019-01-19T15:01:56.120Z,3.37
2019-01-19T15:05:43.467Z,5.40
2019-01-19T15:07:29.720Z,3.70
2019-01-19T15:09:16.099Z,3.05
2019-01-19T15:11:02.428Z,6.90
2019-01-19T15:12:48.765Z,6.17
2019-01-19T15:14:35.307Z,4.08
2019-01-19T15:15:55.287Z,3.95
2019-01-19T15:17:15.156Z,5.47
2019-01-19T15:18:35.426Z,3.15
2019-01-19T15:19:58.852Z,3.22
2019-01-19T15:21:19.267Z,4.67
2019-01-19T15:22:39.063Z,3.87
2019-01-19T15:24:06.220Z,4.62
2019-01-19T15:25:52.489Z,5.67
2019-01-19T15:27:38.723Z,4.83
2019-01-19T15:29:24.988Z,5.65
2019-01-19T15:31:11.223Z,5.05
2019-01-19T15:32:57.504Z,5.10
2019-01-19T15:34:43.752Z,4.60
2019-01-19T15:38:02.775Z,3.90
2019-01-19T15:39:29.231Z,4.92
2019-01-19T15:40:55.759Z,4.72
2019-01-19T15:42:07.367Z,7.85
2019-01-19T15:43:33.765Z,3.80
2019-01-19T15:45:00.192Z,7.92
2019-01-19T15:46:26.661Z,5.72
2019-01-19T15:49:39.083Z,4.08
2019-01-19T15:53:13.106Z,4.70
2019-01-19T15:54:39.508Z,3.58
2019-01-19T15:56:05.793Z,4.97
2019-01-19T15:57:32.241Z,7.20
2019-01-19T15:58:58.597Z,6.55
2019-01-19T16:00:24.931Z,4.25
2019-01-19T16:01:51.301Z,4.17
2019-01-19T16:03:17.628Z,4.65
2019-01-19T16:04:43.955Z,5.42
2019-01-19T16:06:10.412Z,4.65
2019-01-19T16:07:36.733Z,3.20
2019-01-19T16:09:03.736Z,4.65
2019-01-19T16:10:30.086Z,3.35
2019-01-19T16:11:56.506Z,3.08
2019-01-19T16:13:08.299Z,4.28
2019-01-19T16:14:37.567Z,5.87
2019-01-19T16:16:03.926Z,4.95
2019-01-19T16:17:30.209Z,5.12
2019-01-19T16:18:56.628Z,5.58
2019-01-19T16:20:23.096Z,4.42
2019-01-19T16:21:49.386Z,5.17
2019-01-19T16:23:10.757Z,5.47
2019-01-19T16:24:37.114Z,4.75
2019-01-19T16:26:03.463Z,5.12
2019-01-19T16:27:23.130Z,4.97
2019-01-19T16:28:37.108Z,6.10
2019-01-19T16:30:03.547Z,5.10
2019-01-19T16:31:30.069Z,3.75
2019-01-19T16:32:56.501Z,7.78
2019-01-19T16:34:22.959Z,4.67
2019-01-19T16:35:49.495Z,3.85
2019-01-19T16:37:15.828Z,5.20
2019-01-19T16:38:26.976Z,5.60
2019-01-19T16:39:53.312Z,4.12
2019-01-19T16:41:19.655Z,4.90
2019-01-19T16:42:46.048Z,4.47
2019-01-19T16:44:12.430Z,7.17
2019-01-19T16:45:38.769Z,4.12
2019-01-19T16:47:05.226Z,3.90
2019-01-19T16:48:15.763Z,5.30